Time;durP1;ratioP1;P1;durP2;ratioP2;P2;SDS_P1;SDS_P2;PMS_P1;PMS_P2;Temp;Humidity;BMP_temperature;BMP_pressure;BME280_temperature;BME280_humidity;BME280_pressure;Samples;Min_cycle;Max_cycle;Signal;HPM_P1;HPM_P2
2021/08/05 00:01:44;;;;;;;3.47;1.80;;;;;;;14.88;100.00;95505.28;5013563;28;20513;-76
2021/08/05 00:04:09;;;;;;;2.87;1.80;;;;;;;14.76;100.00;95509.75;5013464;28;20443;-76
2021/08/05 00:06:36;;;;;;;6.00;2.10;;;;;;;14.60;100.00;95503.34;5011893;28;20428;-76
2021/08/05 00:09:01;;;;;;;6.10;2.38;;;;;;;14.48;100.00;95494.72;5013341;28;20420;-76
2021/08/05 00:11:27;;;;;;;2.33;2.05;;;;;;;14.47;100.00;95501.72;5012072;28;20431;-76
2021/08/05 00:13:52;;;;;;;4.33;2.20;;;;;;;14.38;100.00;95492.03;5013610;28;20511;-76
2021/08/05 00:16:18;;;;;;;2.63;1.93;;;;;;;14.32;100.00;95494.34;5012929;28;20421;-76
2021/08/05 00:18:43;;;;;;;4.60;2.17;;;;;;;14.23;100.00;95499.34;5011825;28;20428;-76
2021/08/05 00:21:09;;;;;;;2.37;2.00;;;;;;;14.19;100.00;95502.31;5011798;28;20440;-76
2021/08/05 00:23:36;;;;;;;1.85;1.65;;;;;;;14.28;100.00;95492.00;5012974;28;20838;-76
2021/08/05 00:26:01;;;;;;;2.70;1.77;;;;;;;14.36;100.00;95493.16;5013040;28;20778;-76
2021/08/05 00:28:27;;;;;;;2.67;2.00;;;;;;;14.38;100.00;95486.00;5012897;28;20421;-76
2021/08/05 00:30:52;;;;;;;2.33;2.05;;;;;;;14.43;100.00;95487.28;5012896;28;20918;-76
2021/08/05 00:33:18;;;;;;;3.73;2.00;;;;;;;14.48;100.00;95486.91;5012832;28;20858;-77
2021/08/05 00:35:43;;;;;;;2.97;2.03;;;;;;;14.44;100.00;95480.31;5012658;28;20429;-75
2021/08/05 00:38:09;;;;;;;2.63;2.10;;;;;;;14.41;100.00;95483.97;5011318;28;20767;-75
2021/08/05 00:40:35;;;;;;;2.13;1.90;;;;;;;14.42;100.00;95480.41;5012652;28;20420;-75
2021/08/05 00:43:01;;;;;;;3.13;2.30;;;;;;;14.25;100.00;95484.41;5012775;28;20447;-75
2021/08/05 00:45:26;;;;;;;5.10;2.40;;;;;;;14.06;100.00;95488.66;5012502;28;20865;-75
2021/08/05 00:47:52;;;;;;;2.72;2.30;;;;;;;14.11;100.00;95499.50;5012515;28;20420;-75
2021/08/05 00:50:17;;;;;;;3.67;2.47;;;;;;;14.18;100.00;95485.06;5012441;28;20412;-75
2021/08/05 00:52:43;;;;;;;4.07;2.50;;;;;;;14.23;100.00;95483.69;5012500;28;20914;-75
2021/08/05 00:55:09;;;;;;;3.65;2.45;;;;;;;14.28;100.00;95486.78;5012341;28;20483;-76
2021/08/05 00:57:35;;;;;;;2.50;2.30;;;;;;;14.34;100.00;95487.22;5011824;28;20413;-76
2021/08/05 01:00:01;;;;;;;5.80;2.55;;;;;;;14.47;100.00;95483.47;5012363;28;20486;-76
2021/08/05 01:02:34;;;;;;;2.90;2.50;;;;;;;14.42;100.00;95483.00;5012496;28;20421;-75
2021/08/05 01:05:00;;;;;;;2.77;2.50;;;;;;;14.41;100.00;95485.75;5012146;28;20416;-75
2021/08/05 01:07:33;;;;;;;6.93;2.53;;;;;;;14.40;100.00;95489.31;5011813;28;20409;-75
2021/08/05 01:10:06;;;;;;;3.72;2.42;;;;;;;14.38;100.00;95488.63;5012039;28;20415;-75
2021/08/05 01:12:41;;;;;;;4.23;2.40;;;;;;;14.34;100.00;95482.81;5010930;28;20486;-75
2021/08/05 01:15:10;;;;;;;2.70;2.33;;;;;;;14.38;100.00;95484.22;5010690;28;20425;-75
2021/08/05 01:17:38;;;;;;;3.13;2.60;;;;;;;14.38;100.00;95475.59;5011764;28;20922;-75
2021/08/05 01:20:07;;;;;;;3.57;2.60;;;;;;;14.38;100.00;95478.19;5012044;28;20906;-75
2021/08/05 01:22:39;;;;;;;3.45;2.80;;;;;;;14.27;100.00;95482.50;5011929;28;20469;-75
2021/08/05 01:25:09;;;;;;;3.05;2.45;;;;;;;14.19;100.00;95481.47;5010511;28;20428;-75
2021/08/05 01:27:37;;;;;;;3.05;2.30;;;;;;;14.09;100.00;95481.44;5011775;28;20413;-75
2021/08/05 01:30:04;;;;;;;4.32;2.70;;;;;;;14.07;100.00;95483.31;5011671;28;20413;-75
2021/08/05 01:32:30;;;;;;;3.88;2.67;;;;;;;13.97;100.00;95485.81;5011933;28;20424;-75
2021/08/05 01:34:56;;;;;;;2.95;2.58;;;;;;;13.93;100.00;95483.59;5011530;28;20861;-75
2021/08/05 01:37:24;;;;;;;3.90;2.30;;;;;;;13.96;100.00;95478.97;5011260;28;20436;-75
2021/08/05 01:39:51;;;;;;;4.22;2.50;;;;;;;13.97;100.00;95485.00;5011601;28;20424;-75
2021/08/05 01:42:18;;;;;;;3.15;2.58;;;;;;;13.94;100.00;95478.28;5011502;28;20467;-75
2021/08/05 01:44:45;;;;;;;3.40;2.60;;;;;;;13.93;100.00;95473.19;5011435;28;20921;-75
2021/08/05 01:47:13;;;;;;;5.85;2.40;;;;;;;14.01;100.00;95471.59;5011325;28;20413;-74
2021/08/05 01:49:39;;;;;;;3.10;2.30;;;;;;;14.11;100.00;95476.09;5011339;28;20429;-75
2021/08/05 01:52:05;;;;;;;5.28;2.38;;;;;;;14.15;100.00;95469.66;5010175;28;20431;-75
2021/08/05 01:54:31;;;;;;;5.87;2.30;;;;;;;14.18;100.00;95472.84;5011606;28;20420;-75
2021/08/05 01:56:56;;;;;;;3.00;2.53;;;;;;;14.23;100.00;95469.84;5010995;28;20421;-75
2021/08/05 01:59:22;;;;;;;3.30;2.10;;;;;;;14.26;100.00;95469.63;5009950;28;20428;-75
2021/08/05 02:01:48;;;;;;;2.78;2.30;;;;;;;14.27;100.00;95471.25;5011216;28;20953;-75
2021/08/05 02:04:32;;;;;;;8.77;2.70;;;;;;;14.06;100.00;95460.84;5011230;28;20422;-75
2021/08/05 02:07:06;;;;;;;4.35;2.50;;;;;;;14.14;100.00;95455.81;5011246;28;20440;-75
2021/08/05 02:09:35;;;;;;;2.78;2.40;;;;;;;14.17;100.00;95458.19;5010462;28;20494;-75
2021/08/05 02:12:02;;;;;;;5.40;2.30;;;;;;;14.04;100.00;95466.16;5009974;28;20429;-75
2021/08/05 02:14:30;;;;;;;3.67;2.42;;;;;;;14.00;100.00;95449.13;5010022;28;20417;-75
2021/08/05 02:17:00;;;;;;;4.30;2.38;;;;;;;14.09;100.00;95455.38;5009835;28;20798;-75
2021/08/05 02:19:25;;;;;;;2.78;2.05;;;;;;;14.13;100.00;95459.38;5011017;28;20482;-75
2021/08/05 02:21:51;;;;;;;2.53;2.33;;;;;;;14.13;100.00;95453.34;5009782;28;20451;-75
2021/08/05 02:24:19;;;;;;;6.82;2.75;;;;;;;14.14;100.00;95447.19;5010875;28;20413;-75
2021/08/05 02:26:45;;;;;;;8.27;2.47;;;;;;;14.03;100.00;95440.25;5009565;28;20484;-75
2021/08/05 02:29:11;;;;;;;11.10;3.00;;;;;;;13.79;100.00;95453.47;5011048;28;20424;-75
2021/08/05 02:31:37;;;;;;;4.60;2.40;;;;;;;13.80;100.00;95447.34;5010877;28;20413;-75
2021/08/05 02:34:06;;;;;;;2.40;2.20;;;;;;;13.94;100.00;95447.03;5011043;28;20917;-75
2021/08/05 02:36:32;;;;;;;3.30;2.30;;;;;;;14.26;100.00;95448.78;5010441;28;20487;-75
2021/08/05 02:38:58;;;;;;;6.13;2.58;;;;;;;14.40;100.00;95447.63;5011358;28;20456;-75
2021/08/05 02:41:25;;;;;;;3.53;2.50;;;;;;;14.08;100.00;95455.50;5010873;28;20416;-75
2021/08/05 02:43:50;;;;;;;3.97;2.58;;;;;;;14.07;100.00;95440.81;5009582;28;20504;-75
2021/08/05 02:46:17;;;;;;;3.13;2.70;;;;;;;13.99;100.00;95438.84;5010403;28;20492;-75
2021/08/05 02:48:43;;;;;;;3.05;2.42;;;;;;;13.87;100.00;95440.69;5010702;28;20412;-75
2021/08/05 02:51:11;;;;;;;3.88;2.47;;;;;;;14.33;100.00;95438.69;5010691;28;20420;-75
2021/08/05 02:53:37;;;;;;;4.32;2.20;;;;;;;14.08;100.00;95435.47;5010696;28;20412;-75
2021/08/05 02:56:03;;;;;;;2.80;2.50;;;;;;;13.80;100.00;95439.53;5010408;28;20479;-75
2021/08/05 02:58:29;;;;;;;4.65;2.20;;;;;;;13.77;100.00;95437.97;5010909;28;20515;-75
2021/08/05 03:00:55;;;;;;;2.38;2.08;;;;;;;13.80;100.00;95440.34;5009496;28;20435;-75
2021/08/05 03:03:22;;;;;;;3.13;2.20;;;;;;;13.80;100.00;95437.75;5010613;28;20408;-75
2021/08/05 03:05:49;;;;;;;2.63;1.98;;;;;;;13.85;100.00;95432.16;5010501;28;20416;-75
2021/08/05 03:08:15;;;;;;;5.35;2.40;;;;;;;13.92;100.00;95432.50;5009158;28;20898;-75
2021/08/05 03:10:41;;;;;;;3.50;2.03;;;;;;;13.96;100.00;95434.72;5010477;28;20427;-75
2021/08/05 03:13:06;;;;;;;4.40;2.37;;;;;;;14.03;100.00;95433.25;5010540;28;20416;-75
2021/08/05 03:15:31;;;;;;;2.80;2.20;;;;;;;14.10;100.00;95430.16;5010103;28;20432;-75
2021/08/05 03:17:57;;;;;;;2.30;2.10;;;;;;;14.09;100.00;95425.88;5010301;28;20420;-75
2021/08/05 03:20:22;;;;;;;2.50;2.23;;;;;;;14.02;100.00;95428.19;5010674;28;20527;-75
2021/08/05 03:22:48;;;;;;;4.00;2.73;;;;;;;14.01;100.00;95427.34;5014070;28;20815;-75
2021/08/05 03:25:14;;;;;;;2.30;1.97;;;;;;;14.04;100.00;95431.47;5013851;28;20499;-75
2021/08/05 03:27:40;;;;;;;3.33;2.28;;;;;;;13.97;100.00;95430.31;5012890;28;20432;-75
2021/08/05 03:30:07;;;;;;;4.75;2.08;;;;;;;14.02;100.00;95426.41;5013930;28;20419;-75
2021/08/05 03:32:33;;;;;;;2.85;2.22;;;;;;;14.04;100.00;95418.47;5014156;28;20521;-75
2021/08/05 03:34:58;;;;;;;2.80;2.40;;;;;;;14.06;100.00;95431.38;5013920;28;20977;-75
2021/08/05 03:37:24;;;;;;;5.43;2.20;;;;;;;14.09;100.00;95429.34;5013574;28;20421;-75
2021/08/05 03:39:49;;;;;;;3.17;2.10;;;;;;;14.10;100.00;95435.38;5013996;28;20423;-75
2021/08/05 03:42:16;;;;;;;3.13;2.13;;;;;;;14.12;100.00;95428.25;5013899;28;20834;-75
2021/08/05 03:44:42;;;;;;;2.60;2.10;;;;;;;14.13;100.00;95435.94;5013833;28;20416;-75
2021/08/05 03:47:07;;;;;;;3.13;2.17;;;;;;;14.10;100.00;95428.38;5011929;28;20429;-75
2021/08/05 03:49:32;;;;;;;4.40;2.57;;;;;;;14.11;100.00;95424.81;5012470;28;20476;-75
2021/08/05 03:51:58;;;;;;;3.53;2.27;;;;;;;14.02;100.00;95436.81;5013805;28;20913;-75
2021/08/05 03:54:23;;;;;;;3.70;2.15;;;;;;;14.08;100.00;95432.88;5013719;28;20423;-75
2021/08/05 03:56:49;;;;;;;3.50;2.33;;;;;;;14.04;100.00;95434.09;5013124;28;20467;-75
2021/08/05 03:59:15;;;;;;;5.80;2.20;;;;;;;13.95;100.00;95440.06;5013388;28;20424;-75
2021/08/05 04:01:41;;;;;;;3.22;2.20;;;;;;;13.99;100.00;95431.88;5013418;28;20444;-75
2021/08/05 04:04:06;;;;;;;3.90;2.20;;;;;;;13.79;100.00;95437.84;5013289;28;20543;-75
2021/08/05 04:06:31;;;;;;;6.13;2.67;;;;;;;13.75;100.00;95434.66;5013150;28;20871;-75
2021/08/05 04:08:57;;;;;;;2.70;2.10;;;;;;;13.86;100.00;95439.00;5013274;28;20427;-75
2021/08/05 04:11:22;;;;;;;3.30;2.20;;;;;;;13.93;100.00;95424.53;5013254;28;20417;-75
2021/08/05 04:13:48;;;;;;;3.53;2.28;;;;;;;13.91;100.00;95420.44;5013190;28;20416;-76
2021/08/05 04:16:15;;;;;;;2.30;2.08;;;;;;;13.94;100.00;95423.63;5012534;28;20941;-76
2021/08/05 04:18:41;;;;;;;2.72;2.22;;;;;;;14.00;100.00;95427.47;5011814;28;20515;-76
2021/08/05 04:21:06;;;;;;;6.10;2.10;;;;;;;14.04;100.00;95428.88;5011782;28;20519;-76
2021/08/05 04:23:31;;;;;;;3.17;2.20;;;;;;;14.03;100.00;95428.06;5011671;28;20417;-76
2021/08/05 04:25:57;;;;;;;4.43;2.43;;;;;;;14.08;100.00;95430.28;5012657;28;20778;-76
2021/08/05 04:28:23;;;;;;;3.30;2.33;;;;;;;14.04;100.00;95431.47;5012790;28;20500;-76
2021/08/05 04:30:49;;;;;;;2.33;2.13;;;;;;;14.06;100.00;95424.38;5012918;28;20425;-76
2021/08/05 04:33:16;;;;;;;3.03;2.30;;;;;;;14.09;100.00;95423.28;5010759;28;20952;-76
2021/08/05 04:35:41;;;;;;;3.55;2.42;;;;;;;14.01;100.00;95421.31;5012592;28;20508;-76
2021/08/05 04:38:07;;;;;;;2.80;2.30;;;;;;;13.95;100.00;95421.84;5011462;28;20886;-76
2021/08/05 04:40:32;;;;;;;3.45;2.25;;;;;;;14.00;100.00;95424.88;5012737;28;20420;-76
2021/08/05 04:42:58;;;;;;;3.45;2.40;;;;;;;14.01;100.00;95427.34;5012587;28;20443;-76
2021/08/05 04:45:24;;;;;;;4.60;2.40;;;;;;;13.93;100.00;95429.75;5012416;28;20508;-76
2021/08/05 04:47:52;;;;;;;3.50;2.05;;;;;;;13.89;100.00;95433.56;5012258;28;20425;-76
2021/08/05 04:50:19;;;;;;;6.75;2.47;;;;;;;13.88;100.00;95431.09;5012500;28;20837;-76
2021/08/05 04:52:44;;;;;;;2.73;2.17;;;;;;;13.92;100.00;95433.31;5012533;28;20427;-76
2021/08/05 04:55:10;;;;;;;2.37;2.17;;;;;;;13.98;100.00;95429.41;5012299;28;20429;-76
2021/08/05 04:57:45;;;;;;;10.70;2.40;;;;;;;14.01;100.00;95432.53;5012449;28;20421;-76
2021/08/05 05:00:11;;;;;;;2.97;2.30;;;;;;;14.00;100.00;95428.31;5012556;28;20499;-76
2021/08/05 05:02:37;;;;;;;2.88;2.08;;;;;;;14.00;100.00;95428.31;5012227;28;20945;-76
2021/08/05 05:05:03;;;;;;;4.13;2.23;;;;;;;14.08;100.00;95426.84;5012607;28;20460;-76
2021/08/05 05:07:30;;;;;;;3.20;2.00;;;;;;;13.93;100.00;95429.75;5010713;28;20984;-74
2021/08/05 05:09:55;;;;;;;4.67;2.50;;;;;;;13.88;100.00;95424.09;5012247;28;20503;-75
2021/08/05 05:12:20;;;;;;;3.57;2.13;;;;;;;13.86;100.00;95419.97;5011018;28;20512;-75
2021/08/05 05:14:46;;;;;;;3.50;2.20;;;;;;;13.90;100.00;95424.78;5011888;28;20448;-75
2021/08/05 05:17:11;;;;;;;2.88;2.33;;;;;;;14.05;100.00;95420.09;5011566;28;20424;-75
2021/08/05 05:19:37;;;;;;;3.77;2.10;;;;;;;14.06;100.00;95419.19;5012004;28;20448;-75
2021/08/05 05:22:03;;;;;;;5.17;2.53;;;;;;;14.09;100.00;95425.88;5010860;28;20473;-76
2021/08/05 05:24:29;;;;;;;2.50;2.13;;;;;;;14.21;100.00;95423.13;5007885;28;20428;-76
2021/08/05 05:26:55;;;;;;;2.43;2.23;;;;;;;14.10;100.00;95423.19;5011581;28;20898;-76
2021/08/05 05:29:20;;;;;;;3.50;2.07;;;;;;;14.06;100.00;95432.19;5012164;28;20441;-76
2021/08/05 05:31:46;;;;;;;5.77;2.20;;;;;;;13.99;100.00;95431.03;5011541;28;20448;-76
2021/08/05 05:34:11;;;;;;;3.53;2.45;;;;;;;14.01;100.00;95421.31;5011768;28;20429;-76
2021/08/05 05:36:36;;;;;;;3.13;2.40;;;;;;;14.02;100.00;95428.19;5009962;28;20929;-75
2021/08/05 05:39:02;;;;;;;2.80;2.40;;;;;;;14.03;100.00;95420.25;5010241;28;20428;-75
2021/08/05 05:41:29;;;;;;;5.07;1.90;;;;;;;14.09;100.00;95424.13;5011575;28;20428;-76
2021/08/05 05:43:54;;;;;;;4.20;2.17;;;;;;;14.21;100.00;95423.13;5011450;28;20417;-76
2021/08/05 05:46:20;;;;;;;2.50;2.20;;;;;;;14.23;100.00;95430.78;5010908;28;20412;-76
2021/08/05 05:48:45;;;;;;;3.72;2.10;;;;;;;14.21;100.00;95427.50;5010220;28;20472;-76
2021/08/05 05:51:11;;;;;;;4.23;2.40;;;;;;;14.23;100.00;95423.78;5009843;28;20460;-76
2021/08/05 05:53:36;;;;;;;3.42;2.67;;;;;;;14.15;100.00;95431.44;5010258;28;20428;-76
2021/08/05 05:56:02;;;;;;;4.00;3.10;;;;;;;14.13;100.00;95422.94;5011078;28;20429;-76
2021/08/05 05:58:30;;;;;;;4.50;2.87;;;;;;;14.17;100.00;95419.13;5006122;28;20754;-77
2021/08/05 06:00:56;;;;;;;5.97;2.90;;;;;;;14.03;100.00;95420.25;5010210;28;20822;-76
2021/08/05 06:03:22;;;;;;;3.63;2.78;;;;;;;14.15;100.00;95420.19;5011651;28;20830;-75
2021/08/05 06:05:47;;;;;;;3.73;2.87;;;;;;;14.21;100.00;95415.31;5011284;28;20420;-75
2021/08/05 06:08:13;;;;;;;3.40;2.70;;;;;;;14.16;100.00;95414.84;5011348;28;20496;-75
2021/08/05 06:10:38;;;;;;;3.50;2.83;;;;;;;14.19;100.00;95403.34;5010229;28;20420;-75
2021/08/05 06:13:04;;;;;;;3.27;2.57;;;;;;;14.27;100.00;95413.94;5011438;28;20492;-75
2021/08/05 06:15:30;;;;;;;4.63;2.60;;;;;;;14.42;100.00;95414.44;5010997;28;20460;-75
2021/08/05 06:17:56;;;;;;;3.63;2.80;;;;;;;14.38;100.00;95413.06;5011356;28;20420;-76
2021/08/05 06:20:21;;;;;;;3.77;2.90;;;;;;;14.44;100.00;95409.94;5010173;28;20447;-77
2021/08/05 06:22:48;;;;;;;4.18;2.80;;;;;;;14.57;100.00;95417.59;5027253;28;20927;-76
2021/08/05 06:25:14;;;;;;;4.85;2.63;;;;;;;14.56;100.00;95408.94;5030663;28;20411;-76
2021/08/05 06:27:40;;;;;;;5.77;3.00;;;;;;;14.57;100.00;95417.59;5029724;28;20551;-76
2021/08/05 06:30:07;;;;;;;3.47;2.53;;;;;;;14.75;100.00;95418.63;5030419;28;20502;-75
2021/08/05 06:32:34;;;;;;;4.15;2.72;;;;;;;14.81;100.00;95419.91;5031100;28;20534;-76
2021/08/05 06:35:00;;;;;;;4.37;2.60;;;;;;;14.83;100.00;95424.03;5030690;28;20407;-75
2021/08/05 06:37:26;;;;;;;4.10;2.53;;;;;;;14.94;100.00;95423.09;5030514;28;20829;-77
2021/08/05 06:39:53;;;;;;;3.00;2.70;;;;;;;15.22;100.00;95426.78;5029468;28;20430;-77
2021/08/05 06:42:18;;;;;;;2.97;2.42;;;;;;;15.41;100.00;95428.63;5030714;28;20426;-77
2021/08/05 06:44:44;;;;;;;2.85;2.42;;;;;;;15.53;100.00;95416.25;5030731;28;20415;-77
2021/08/05 06:47:09;;;;;;;2.87;2.33;;;;;;;15.75;100.00;95420.44;5030292;28;20415;-77
2021/08/05 06:49:36;;;;;;;3.60;2.60;;;;;;;15.64;100.00;95427.41;5030669;28;20813;-79
2021/08/05 06:52:01;;;;;;;5.47;2.40;;;;;;;15.70;100.00;95426.91;5020623;28;20413;-77
2021/08/05 06:54:27;;;;;;;4.50;2.37;;;;;;;15.80;100.00;95424.31;5011538;28;20412;-78
2021/08/05 06:56:53;;;;;;;3.17;2.50;;;;;;;15.84;100.00;95424.88;5013379;28;20542;-77
2021/08/05 06:59:19;;;;;;;3.65;2.55;;;;;;;15.90;100.00;95421.69;5015043;28;20423;-77
2021/08/05 07:01:46;;;;;;;8.27;2.67;;;;;;;15.80;100.00;95419.09;5014988;28;20448;-77
2021/08/05 07:04:11;;;;;;;4.93;2.70;;;;;;;15.84;100.00;95414.41;5014258;28;20424;-77
2021/08/05 07:06:39;;;;;;;7.30;2.90;;;;;;;15.88;100.00;95426.25;5015052;28;20413;-77
2021/08/05 07:09:05;;;;;;;4.50;2.60;;;;;;;16.11;100.00;95425.00;5015637;28;20452;-77
2021/08/05 07:11:30;;;;;;;3.47;2.47;;;;;;;16.13;100.00;95424.84;5014945;28;20456;-77
2021/08/05 07:13:55;;;;;;;4.07;2.33;;;;;;;16.16;100.00;95425.38;5013927;28;20425;-77
2021/08/05 07:16:21;;;;;;;2.97;2.37;;;;;;;16.41;100.00;95417.94;5014624;28;20436;-76
2021/08/05 07:18:46;;;;;;;5.43;2.70;;;;;;;16.60;100.00;95411.84;5014941;28;20504;-77
2021/08/05 07:21:12;;;;;;;3.30;2.37;;;;;;;16.79;100.00;95410.97;5016761;28;20421;-76
2021/08/05 07:23:39;;;;;;;5.03;2.40;;;;;;;17.09;98.97;95402.03;5024478;28;20416;-76
2021/08/05 07:26:04;;;;;;;2.95;2.30;;;;;;;17.30;93.79;95405.25;5013236;28;20436;-76
2021/08/05 07:28:30;;;;;;;2.95;2.30;;;;;;;17.49;91.26;95406.09;5014591;28;20416;-76
2021/08/05 07:30:57;;;;;;;3.03;2.13;;;;;;;17.42;91.32;95409.28;5014579;28;20478;-76
2021/08/05 07:33:23;;;;;;;2.60;2.28;;;;;;;17.51;91.49;95407.59;5014678;28;20456;-76
2021/08/05 07:35:48;;;;;;;3.70;2.70;;;;;;;17.65;90.69;95408.91;5012461;28;20448;-76
2021/08/05 07:38:14;;;;;;;4.20;2.00;;;;;;;17.80;87.61;95415.31;5013334;28;20428;-75
2021/08/05 07:40:40;;;;;;;3.55;2.40;;;;;;;17.36;90.37;95404.66;5013152;28;20436;-75
2021/08/05 07:43:06;;;;;;;2.60;2.20;;;;;;;17.58;91.91;95413.09;5014320;28;20459;-76
2021/08/05 07:45:32;;;;;;;2.43;2.23;;;;;;;17.56;89.69;95409.78;5014177;28;20444;-75
2021/08/05 07:47:57;;;;;;;2.60;2.25;;;;;;;17.71;87.84;95413.53;5014291;28;20495;-76
2021/08/05 07:50:23;;;;;;;2.20;2.00;;;;;;;17.82;88.80;95413.34;5014172;28;20863;-76
2021/08/05 07:52:48;;;;;;;2.20;2.00;;;;;;;17.76;86.03;95407.88;5013923;28;20432;-76
2021/08/05 07:55:14;;;;;;;3.10;2.25;;;;;;;17.63;87.60;95406.41;5013984;28;20419;-76
2021/08/05 07:57:41;;;;;;;2.80;2.17;;;;;;;17.51;87.65;95406.78;5013864;28;20447;-75
2021/08/05 08:00:08;;;;;;;3.42;2.33;;;;;;;17.55;86.81;95395.03;5013901;28;20416;-75
2021/08/05 08:02:33;;;;;;;3.58;1.92;;;;;;;17.42;88.03;95390.16;5012786;28;20918;-76
2021/08/05 08:04:59;;;;;;;3.58;2.17;;;;;;;17.78;88.81;95393.66;5012476;28;20432;-77
2021/08/05 08:07:24;;;;;;;3.97;2.50;;;;;;;18.01;87.77;95394.03;5012557;28;20421;-76
2021/08/05 08:09:49;;;;;;;3.00;2.20;;;;;;;18.11;80.59;95394.78;5012425;28;20424;-76
2021/08/05 08:12:15;;;;;;;3.55;2.40;;;;;;;18.53;83.67;95391.47;5013265;28;20413;-76
2021/08/05 08:14:42;;;;;;;4.57;2.40;;;;;;;18.92;83.73;95393.69;5013423;28;20409;-76
2021/08/05 08:17:08;;;;;;;2.85;2.33;;;;;;;18.80;78.97;95385.28;5013294;28;20428;-76
2021/08/05 08:19:34;;;;;;;3.42;2.40;;;;;;;19.33;78.65;95381.53;5013183;28;20467;-77
2021/08/05 08:22:00;;;;;;;2.40;2.20;;;;;;;19.75;79.61;95385.09;5012896;28;20536;-76
2021/08/05 08:24:26;;;;;;;3.10;2.33;;;;;;;19.19;76.94;95383.94;5013046;28;20416;-76
2021/08/05 08:26:51;;;;;;;5.40;2.30;;;;;;;18.63;78.65;95394.81;5012737;28;20507;-76
2021/08/05 08:29:17;;;;;;;5.90;2.50;;;;;;;18.60;78.27;95392.47;5012954;28;20416;-76
2021/08/05 08:31:44;;;;;;;1.97;1.63;;;;;;;18.43;76.85;95390.75;5013089;28;20424;-76
2021/08/05 08:34:09;;;;;;;2.53;2.00;;;;;;;18.44;78.45;95381.91;5013109;28;20822;-76
2021/08/05 08:36:35;;;;;;;3.80;2.00;;;;;;;18.98;76.99;95382.53;5012690;28;20459;-76
2021/08/05 08:39:01;;;;;;;4.43;2.47;;;;;;;19.55;76.56;95380.13;5013011;28;20440;-75
2021/08/05 08:41:28;;;;;;;2.08;1.70;;;;;;;18.94;72.88;95389.09;5012869;28;20416;-75
2021/08/05 08:43:53;;;;;;;3.15;1.63;;;;;;;18.59;75.29;95387.41;5011778;28;20487;-76
2021/08/05 08:46:21;;;;;;;2.30;1.65;;;;;;;18.36;78.07;95392.34;5011423;28;20416;-76
2021/08/05 08:48:52;;;;;;;2.83;2.15;;;;;;;18.45;76.23;95386.16;5011559;28;20783;-76
2021/08/05 08:51:19;;;;;;;2.55;1.80;;;;;;;18.88;75.55;95379.25;5012488;28;20429;-76
2021/08/05 08:53:48;;;;;;;2.83;1.83;;;;;;;19.68;74.43;95382.31;5012469;28;20443;-77
2021/08/05 08:56:14;;;;;;;2.00;1.65;;;;;;;20.06;68.41;95383.50;5012410;28;20504;-76
2021/08/05 08:58:40;;;;;;;2.67;1.50;;;;;;;19.89;64.58;95376.59;5012515;28;20497;-76
2021/08/05 09:01:05;;;;;;;2.60;1.50;;;;;;;20.21;68.54;95377.56;5012580;28;20409;-76
2021/08/05 09:03:32;;;;;;;3.20;1.40;;;;;;;20.35;64.63;95378.72;5012767;28;20786;-76
2021/08/05 09:05:59;;;;;;;4.80;1.70;;;;;;;20.10;68.21;95372.63;5012563;28;20413;-76
2021/08/05 09:08:24;;;;;;;3.75;1.80;;;;;;;20.28;66.03;95376.75;5012648;28;20412;-76
2021/08/05 09:10:54;;;;;;;2.40;1.60;;;;;;;20.41;66.01;95384.13;5012741;28;20505;-77
2021/08/05 09:13:19;;;;;;;1.87;1.43;;;;;;;20.76;65.55;95376.84;5012627;28;20453;-76
2021/08/05 09:15:46;;;;;;;4.53;1.63;;;;;;;20.43;62.28;95381.31;5011131;28;20491;-75
2021/08/05 09:18:31;;;;;;;8.47;1.80;;;;;;;20.66;63.64;95370.97;5012029;28;20420;-76
2021/08/05 09:21:09;;;;;;;2.40;1.67;;;;;;;20.44;64.45;95378.56;5012359;28;20467;-76
2021/08/05 09:23:47;;;;;;;2.35;1.75;;;;;;;20.61;64.71;95375.91;5012302;28;20417;-75
2021/08/05 09:26:28;;;;;;;1.83;1.38;;;;;;;20.71;64.53;95372.09;5010879;28;20429;-76
2021/08/05 09:29:09;;;;;;;1.65;1.45;;;;;;;20.71;63.88;95377.38;5011218;28;20428;-76
2021/08/05 09:31:37;;;;;;;1.77;1.40;;;;;;;20.01;65.52;95369.19;5012553;28;20432;-76
2021/08/05 09:34:05;;;;;;;1.77;1.42;;;;;;;20.04;66.85;95359.19;5012207;28;20420;-76
2021/08/05 09:36:32;;;;;;;1.58;1.30;;;;;;;20.05;66.26;95354.72;5010756;28;20424;-76
2021/08/05 09:38:57;;;;;;;2.53;1.58;;;;;;;20.47;68.20;95362.44;5012362;28;20474;-77
2021/08/05 09:41:23;;;;;;;2.07;1.43;;;;;;;20.36;65.70;95354.91;5012864;28;20424;-75
2021/08/05 09:44:00;;;;;;;1.80;1.30;;;;;;;20.20;66.12;95360.16;5011168;28;20431;-77
2021/08/05 09:46:30;;;;;;;2.58;1.65;;;;;;;20.22;67.96;95366.91;5012622;28;20425;-77
2021/08/05 09:48:55;;;;;;;3.42;1.48;;;;;;;20.15;68.63;95367.72;5012785;28;20793;-78
2021/08/05 09:51:21;;;;;;;1.80;1.58;;;;;;;20.17;66.85;95358.69;5016081;28;20490;-76
2021/08/05 09:53:56;;;;;;;4.43;1.50;;;;;;;19.93;68.56;95354.25;5031462;28;20419;-77
2021/08/05 09:56:23;;;;;;;1.70;1.33;;;;;;;19.81;66.24;95363.44;5031040;28;20581;-77
2021/08/05 09:58:49;;;;;;;1.50;1.27;;;;;;;19.79;70.71;95362.78;5030049;28;20936;-77
2021/08/05 10:01:15;;;;;;;2.33;1.58;;;;;;;19.68;68.14;95358.66;5031291;28;20407;-78
2021/08/05 10:03:40;;;;;;;1.75;1.42;;;;;;;19.59;68.53;95349.91;5031271;28;20414;-77
2021/08/05 10:06:07;;;;;;;1.77;1.17;;;;;;;19.77;69.36;95359.50;5029930;28;20502;-77
2021/08/05 10:08:34;;;;;;;1.30;1.20;;;;;;;19.82;69.47;95349.31;5031202;28;20502;-77
2021/08/05 10:11:01;;;;;;;1.83;1.45;;;;;;;19.99;69.42;95350.97;5031344;28;20451;-77
2021/08/05 10:13:28;;;;;;;1.80;1.38;;;;;;;20.16;68.05;95351.78;5031482;28;20913;-77
2021/08/05 10:15:54;;;;;;;1.58;1.30;;;;;;;20.33;67.75;95351.78;5029448;28;20510;-78
2021/08/05 10:18:19;;;;;;;2.47;1.00;;;;;;;19.79;65.61;95347.00;5031403;28;21001;-78
2021/08/05 10:20:45;;;;;;;1.80;1.20;;;;;;;19.70;66.38;95335.69;5031373;28;20414;-78
2021/08/05 10:23:11;;;;;;;1.63;1.33;;;;;;;19.89;67.46;95346.84;5011028;28;20423;-78
2021/08/05 10:25:37;;;;;;;1.70;1.20;;;;;;;19.79;67.90;95342.56;5011177;28;20412;-78
2021/08/05 10:28:05;;;;;;;2.45;1.52;;;;;;;19.80;70.96;95335.50;5009784;28;20416;-77
2021/08/05 10:30:30;;;;;;;2.05;1.15;;;;;;;19.76;75.54;95331.56;5009669;28;20436;-77
2021/08/05 10:32:56;;;;;;;2.17;1.10;;;;;;;19.37;80.34;95337.41;5011875;28;20826;-78
2021/08/05 10:35:24;;;;;;;3.27;1.30;;;;;;;19.46;76.69;95333.78;5009699;28;20495;-77
2021/08/05 10:37:50;;;;;;;2.58;1.58;;;;;;;19.20;79.38;95343.59;5011295;28;21045;-77
2021/08/05 10:40:17;;;;;;;2.20;1.30;;;;;;;19.25;82.31;95336.06;5010433;28;20767;-76
2021/08/05 10:42:43;;;;;;;3.10;1.40;;;;;;;19.27;84.85;95328.84;5011691;28;20413;-77
2021/08/05 10:45:11;;;;;;;2.70;1.73;;;;;;;19.33;87.53;95330.84;5012113;28;20412;-76
2021/08/05 10:47:38;;;;;;;3.40;1.50;;;;;;;19.41;84.75;95322.97;5009868;28;20456;-77
2021/08/05 10:50:10;;;;;;;2.53;1.20;;;;;;;19.53;83.67;95316.41;5011958;28;20413;-77
2021/08/05 10:52:41;;;;;;;4.38;1.10;;;;;;;19.73;78.80;95321.41;5011413;28;20423;-77
2021/08/05 10:55:22;;;;;;;1.40;1.17;;;;;;;19.86;78.31;95318.28;5010614;28;20453;-77
2021/08/05 10:58:14;;;;;;;1.77;1.25;;;;;;;19.54;81.63;95310.19;5010951;28;20455;-77
2021/08/05 11:01:02;;;;;;;0.80;0.70;;;;;;;18.96;72.27;95304.97;5011371;28;20432;-77
2021/08/05 11:03:46;;;;;;;1.10;0.75;;;;;;;18.67;72.95;95303.50;5011182;28;20420;-76
2021/08/05 11:06:29;;;;;;;1.85;1.10;;;;;;;18.65;78.08;95308.09;5011892;28;20910;-77
2021/08/05 11:08:55;;;;;;;1.77;1.10;;;;;;;18.58;78.98;95307.09;5012425;28;20421;-77
2021/08/05 11:11:31;;;;;;;1.10;1.00;;;;;;;18.91;82.86;95297.59;5011598;28;20936;-77
2021/08/05 11:14:34;;;;;;;1.25;0.90;;;;;;;18.83;77.31;95295.72;5012523;28;20901;-78
2021/08/05 11:17:04;;;;;;;1.23;1.07;;;;;;;19.10;80.31;95294.69;5010621;28;20498;-77
2021/08/05 11:19:31;;;;;;;1.40;1.30;;;;;;;19.36;83.97;95295.56;5011214;28;20907;-76
2021/08/05 11:21:57;;;;;;;1.73;1.15;;;;;;;19.57;80.60;95293.25;5010948;28;20520;-77
2021/08/05 11:24:52;;;;;;;2.20;0.90;;;;;;;19.34;77.44;95283.41;5011480;28;20864;-76
2021/08/05 11:27:19;;;;;;;1.90;1.20;;;;;;;19.50;78.76;95285.22;4965371;28;20429;-77
2021/08/05 11:29:46;;;;;;;1.63;1.00;;;;;;;19.41;75.67;95282.75;5011182;28;20514;-76